Time;durP1;ratioP1;P1;durP2;ratioP2;P2;SDS_P1;SDS_P2;PMS_P1;PMS_P2;Temp;Humidity;BMP_temperature;BMP_pressure;BME280_temperature;BME280_humidity;BME280_pressure;Samples;Min_cycle;Max_cycle;Signal;HPM_P1;HPM_P2
2021/06/17 00:00:33;;;;;;;1.17;0.80;;;22.90;99.90;;;;;;5090798;28;20195;-84
2021/06/17 00:02:59;;;;;;;1.00;1.00;;;23.00;99.90;;;;;;5100743;28;20207;-85
2021/06/17 00:05:28;;;;;;;0.63;0.60;;;23.00;99.90;;;;;;5105157;28;20227;-85
2021/06/17 00:07:54;;;;;;;0.80;0.80;;;23.00;99.90;;;;;;5109674;28;20183;-85
2021/06/17 00:10:34;;;;;;;3.37;0.80;;;23.00;99.90;;;;;;5096316;28;20557;-85
2021/06/17 00:13:03;;;;;;;2.33;0.87;;;22.90;99.90;;;;;;5115643;28;20262;-85
2021/06/17 00:15:30;;;;;;;1.17;0.97;;;22.90;99.90;;;;;;5096782;28;20188;-85
2021/06/17 00:17:57;;;;;;;0.87;0.87;;;22.90;99.90;;;;;;5108666;28;20223;-85
2021/06/17 00:20:23;;;;;;;1.00;0.73;;;22.80;99.90;;;;;;5111211;28;20187;-85
2021/06/17 00:22:49;;;;;;;0.93;0.53;;;22.80;99.90;;;;;;5095662;28;20196;-85
2021/06/17 00:25:16;;;;;;;1.53;1.00;;;22.80;99.90;;;;;;5091021;28;20208;-85
2021/06/17 00:27:42;;;;;;;0.63;0.63;;;22.80;99.90;;;;;;5091470;28;20531;-86
2021/06/17 00:30:09;;;;;;;0.50;0.50;;;22.80;99.90;;;;;;5094320;28;20208;-85
2021/06/17 00:32:34;;;;;;;0.70;0.70;;;22.90;99.90;;;;;;5093517;28;20551;-85
2021/06/17 00:35:00;;;;;;;0.83;0.60;;;22.90;99.90;;;;;;5094356;28;20188;-85
2021/06/17 00:37:25;;;;;;;0.80;0.77;;;22.90;99.90;;;;;;5096467;28;22028;-85
2021/06/17 00:39:52;;;;;;;6.97;0.97;;;22.90;99.90;;;;;;5101365;28;20254;-83
2021/06/17 00:42:17;;;;;;;0.47;0.43;;;22.80;99.90;;;;;;5100336;28;20198;-85
2021/06/17 00:44:43;;;;;;;0.80;0.77;;;22.80;99.90;;;;;;5090892;28;20656;-85
2021/06/17 00:47:09;;;;;;;1.50;0.97;;;22.70;99.90;;;;;;5093440;28;20853;-85
2021/06/17 00:49:34;;;;;;;0.70;0.70;;;22.70;99.90;;;;;;5092645;28;20301;-85
2021/06/17 00:52:02;;;;;;;0.87;0.87;;;22.70;99.90;;;;;;5103218;28;20179;-85
2021/06/17 00:54:32;;;;;;;0.37;0.37;;;22.60;99.90;;;;;;5098418;28;20211;-85
2021/06/17 00:57:02;;;;;;;1.03;0.97;;;22.60;99.90;;;;;;5090541;28;20192;-85
2021/06/17 00:59:28;;;;;;;0.50;0.50;;;22.60;99.90;;;;;;5089748;28;20254;-85
2021/06/17 01:01:54;;;;;;;0.93;0.90;;;22.60;99.90;;;;;;5103429;28;20589;-85
2021/06/17 01:04:20;;;;;;;0.70;0.70;;;22.50;99.90;;;;;;5095874;28;20180;-83
2021/06/17 01:06:45;;;;;;;1.00;0.90;;;22.40;99.90;;;;;;5104317;28;20714;-85
2021/06/17 01:09:19;;;;;;;0.80;0.70;;;22.40;99.90;;;;;;5096144;28;20245;-86
2021/06/17 01:12:00;;;;;;;0.80;0.80;;;22.40;99.90;;;;;;5102849;27;20178;-83
2021/06/17 01:14:32;;;;;;;0.90;0.90;;;22.40;99.90;;;;;;5111697;28;20241;-85
2021/06/17 01:17:12;;;;;;;0.80;0.80;;;22.30;99.90;;;;;;5098857;28;20184;-85
2021/06/17 01:20:09;;;;;;;0.73;0.73;;;22.40;99.90;;;;;;5105657;28;20709;-85
2021/06/17 01:22:56;;;;;;;0.80;0.80;;;22.50;99.90;;;;;;5072606;28;20256;-85
2021/06/17 01:25:34;;;;;;;0.57;0.57;;;22.50;99.90;;;;;;5103828;28;20578;-86
2021/06/17 01:28:02;;;;;;;0.70;0.70;;;22.40;99.90;;;;;;5102216;28;20264;-85
2021/06/17 01:30:30;;;;;;;0.90;0.70;;;22.40;99.90;;;;;;5105483;28;20200;-85
2021/06/17 01:33:00;;;;;;;2.50;0.80;;;22.40;99.90;;;;;;5107942;28;20183;-85
2021/06/17 01:35:28;;;;;;;1.23;0.70;;;22.50;99.90;;;;;;5093880;28;20199;-85
2021/06/17 01:38:00;;;;;;;0.50;0.50;;;22.50;99.90;;;;;;5101043;28;20192;-85
2021/06/17 01:40:28;;;;;;;0.60;0.60;;;22.50;99.90;;;;;;5111660;28;20196;-84
2021/06/17 01:42:55;;;;;;;0.40;0.30;;;22.50;99.90;;;;;;5107727;28;20715;-84
2021/06/17 01:45:22;;;;;;;0.50;0.50;;;22.60;99.90;;;;;;5102017;28;20214;-85
2021/06/17 01:47:51;;;;;;;0.60;0.60;;;22.60;99.90;;;;;;5098909;28;20189;-85
2021/06/17 01:50:18;;;;;;;1.47;0.70;;;22.60;99.90;;;;;;5107000;28;20180;-85
2021/06/17 01:52:46;;;;;;;0.93;0.90;;;22.60;99.90;;;;;;5098076;28;20196;-85
2021/06/17 01:55:13;;;;;;;0.63;0.63;;;22.50;99.90;;;;;;5097563;28;20180;-85
2021/06/17 01:57:40;;;;;;;1.20;0.70;;;22.40;99.90;;;;;;5094798;28;20237;-84
2021/06/17 02:00:07;;;;;;;0.40;0.40;;;22.40;99.90;;;;;;5102457;28;20624;-85
2021/06/17 02:02:33;;;;;;;1.40;0.70;;;22.40;99.90;;;;;;5101841;28;21080;-85
2021/06/17 02:04:59;;;;;;;1.73;0.73;;;22.50;99.90;;;;;;5093716;28;20192;-84
2021/06/17 02:07:25;;;;;;;0.77;0.67;;;22.50;99.90;;;;;;5113094;28;20188;-85
2021/06/17 02:09:53;;;;;;;0.67;0.67;;;22.40;99.90;;;;;;5098124;28;20253;-85
2021/06/17 02:12:20;;;;;;;1.07;0.97;;;22.40;99.90;;;;;;5110148;27;20180;-85
2021/06/17 02:14:49;;;;;;;0.60;0.60;;;22.40;99.90;;;;;;5110596;28;20190;-84
2021/06/17 02:17:15;;;;;;;2.43;1.20;;;22.20;99.90;;;;;;5098505;28;20192;-85
2021/06/17 02:19:41;;;;;;;0.53;0.53;;;22.10;99.90;;;;;;5097986;28;20294;-85
2021/06/17 02:22:09;;;;;;;1.43;1.07;;;22.00;99.90;;;;;;5103703;28;20669;-85
2021/06/17 02:24:38;;;;;;;0.40;0.40;;;21.90;99.90;;;;;;5105037;28;20243;-85
2021/06/17 02:27:13;;;;;;;0.77;0.77;;;21.80;99.90;;;;;;5091343;28;20236;-85
2021/06/17 02:29:42;;;;;;;1.10;0.93;;;21.80;99.90;;;;;;5095114;28;20210;-85
2021/06/17 02:32:11;;;;;;;0.53;0.53;;;21.80;99.90;;;;;;5101292;28;20180;-84
2021/06/17 02:34:40;;;;;;;0.40;0.40;;;21.70;99.90;;;;;;5097331;28;20607;-85
2021/06/17 02:37:05;;;;;;;1.03;0.83;;;21.70;99.90;;;;;;5098142;28;20265;-84
2021/06/17 02:39:33;;;;;;;0.40;0.40;;;21.70;99.90;;;;;;5110792;27;20235;-85
2021/06/17 02:42:00;;;;;;;1.10;0.60;;;21.60;99.90;;;;;;5091163;28;20180;-84
2021/06/17 02:44:28;;;;;;;1.70;0.57;;;21.70;99.90;;;;;;5094810;28;20766;-85
2021/06/17 02:46:54;;;;;;;0.50;0.50;;;21.80;99.90;;;;;;5102391;28;20229;-85
2021/06/17 02:49:20;;;;;;;0.70;0.60;;;21.90;99.90;;;;;;5104888;28;20209;-85
2021/06/17 02:51:46;;;;;;;0.90;0.80;;;22.00;99.90;;;;;;5109096;28;20198;-85
2021/06/17 02:54:12;;;;;;;0.90;0.90;;;22.10;99.90;;;;;;5103997;28;20176;-85
2021/06/17 02:56:59;;;;;;;1.57;0.73;;;22.20;99.90;;;;;;5105061;28;20226;-86
2021/06/17 02:59:32;;;;;;;0.60;0.53;;;22.20;99.90;;;;;;5091155;28;20706;-84
2021/06/17 03:02:05;;;;;;;0.50;0.50;;;22.10;99.90;;;;;;5093500;28;20211;-85
2021/06/17 03:04:44;;;;;;;0.93;0.80;;;22.10;99.90;;;;;;5097176;28;20184;-84
2021/06/17 03:07:18;;;;;;;0.73;0.73;;;22.10;99.90;;;;;;5108761;28;20704;-85
2021/06/17 03:09:46;;;;;;;0.67;0.67;;;21.90;99.90;;;;;;5092369;28;20230;-84
2021/06/17 03:12:14;;;;;;;0.53;0.53;;;22.00;99.90;;;;;;5104372;27;20180;-84
2021/06/17 03:14:41;;;;;;;0.83;0.83;;;22.00;99.90;;;;;;5093981;28;20713;-85
2021/06/17 03:17:08;;;;;;;0.50;0.50;;;21.90;99.90;;;;;;5102444;28;20691;-85
2021/06/17 03:19:35;;;;;;;0.60;0.60;;;21.80;99.90;;;;;;5099896;28;20220;-84
2021/06/17 03:22:05;;;;;;;0.57;0.57;;;21.90;99.90;;;;;;5090502;28;20659;-84
2021/06/17 03:24:36;;;;;;;0.60;0.60;;;21.90;99.90;;;;;;5083809;28;20279;-84
2021/06/17 03:27:04;;;;;;;1.07;0.60;;;22.00;99.90;;;;;;5099817;28;20223;-85
2021/06/17 03:29:37;;;;;;;0.50;0.50;;;22.10;99.90;;;;;;5099012;28;20588;-85
2021/06/17 03:32:04;;;;;;;0.60;0.60;;;22.10;99.90;;;;;;5089358;28;20180;-85
2021/06/17 03:34:31;;;;;;;0.80;0.63;;;21.90;99.90;;;;;;5099996;28;20176;-84
2021/06/17 03:37:00;;;;;;;0.80;0.80;;;21.70;99.90;;;;;;5102740;28;20187;-85
2021/06/17 03:39:27;;;;;;;1.10;0.70;;;21.90;99.90;;;;;;5101261;28;20244;-85
2021/06/17 03:41:53;;;;;;;0.67;0.67;;;22.60;99.90;;;;;;5103374;27;20183;-84
2021/06/17 03:44:20;;;;;;;1.07;0.77;;;23.40;99.90;;;;;;5094153;28;20188;-85
2021/06/17 03:46:47;;;;;;;0.67;0.67;;;24.10;99.90;;;;;;5089619;28;20565;-85
2021/06/17 03:49:13;;;;;;;1.47;0.73;;;24.70;99.90;;;;;;5090146;28;20556;-85
2021/06/17 03:51:40;;;;;;;0.77;0.70;;;24.90;99.90;;;;;;5107993;28;20183;-86
2021/06/17 03:54:08;;;;;;;0.53;0.53;;;25.60;99.90;;;;;;5107713;28;20187;-85
2021/06/17 03:56:34;;;;;;;1.70;0.60;;;26.10;99.90;;;;;;5092408;28;20184;-85
2021/06/17 03:59:01;;;;;;;0.90;0.90;;;26.60;99.90;;;;;;5106546;28;20643;-85
2021/06/17 04:01:28;;;;;;;0.40;0.40;;;27.20;99.90;;;;;;5094155;28;20194;-84
2021/06/17 04:03:54;;;;;;;0.63;0.63;;;27.70;99.90;;;;;;5116410;28;20188;-85
2021/06/17 04:06:25;;;;;;;0.70;0.70;;;28.10;99.90;;;;;;5108896;28;20219;-85
2021/06/17 04:08:52;;;;;;;0.53;0.53;;;28.60;99.90;;;;;;5103043;28;20253;-85
2021/06/17 04:11:20;;;;;;;0.90;0.80;;;29.10;99.90;;;;;;5109957;28;20186;-85
2021/06/17 04:13:49;;;;;;;0.47;0.47;;;29.30;99.90;;;;;;5107574;28;20206;-84
2021/06/17 04:16:18;;;;;;;0.80;0.77;;;28.90;99.90;;;;;;5125007;28;20330;-84
2021/06/17 04:18:45;;;;;;;0.60;0.60;;;29.70;99.90;;;;;;5117291;28;20226;-84
2021/06/17 04:21:12;;;;;;;0.70;0.70;;;30.20;99.90;;;;;;5115170;28;20179;-83
2021/06/17 04:23:40;;;;;;;0.83;0.70;;;30.40;99.90;;;;;;5113855;28;20200;-85
2021/06/17 04:26:07;;;;;;;1.63;1.23;;;30.10;99.90;;;;;;5092239;28;20208;-85
2021/06/17 04:28:34;;;;;;;0.63;0.63;;;29.30;99.90;;;;;;5106187;28;20204;-85
2021/06/17 04:31:01;;;;;;;0.93;0.83;;;28.60;99.90;;;;;;5119453;28;20206;-85
2021/06/17 04:33:28;;;;;;;1.00;0.73;;;28.10;99.90;;;;;;5102248;28;20237;-84
2021/06/17 04:35:59;;;;;;;1.50;1.33;;;27.50;99.90;;;;;;5094611;28;20276;-85
2021/06/17 04:38:26;;;;;;;0.77;0.77;;;26.30;99.90;;;;;;5096968;28;20357;-85
2021/06/17 04:40:52;;;;;;;0.77;0.77;;;26.10;99.90;;;;;;5094281;28;20567;-84
2021/06/17 04:43:21;;;;;;;0.47;0.40;;;26.10;99.90;;;;;;5096287;28;20195;-85
2021/06/17 04:45:49;;;;;;;0.53;0.47;;;26.00;99.90;;;;;;5092748;28;20215;-85
2021/06/17 04:48:15;;;;;;;0.77;0.77;;;25.90;99.90;;;;;;5101407;28;20199;-85
2021/06/17 04:50:41;;;;;;;1.10;0.80;;;25.80;99.90;;;;;;5104946;28;20179;-85
2021/06/17 04:53:09;;;;;;;0.67;0.63;;;25.70;99.90;;;;;;5107639;28;20263;-85
2021/06/17 04:55:44;;;;;;;1.07;0.57;;;25.60;99.90;;;;;;5099372;28;20282;-85
2021/06/17 04:58:10;;;;;;;0.50;0.50;;;25.50;99.90;;;;;;5111892;27;20211;-85
2021/06/17 05:00:36;;;;;;;1.13;1.03;;;25.40;99.90;;;;;;5101830;28;20214;-84
2021/06/17 05:03:02;;;;;;;0.80;0.80;;;25.30;99.90;;;;;;5097005;28;20807;-84
2021/06/17 05:05:27;;;;;;;1.07;0.80;;;25.30;99.90;;;;;;5112612;28;20237;-84
2021/06/17 05:10:52;;;;;;;0.80;0.43;;;24.40;99.90;;;;;;5095671;28;20241;-83
2021/06/17 05:13:19;;;;;;;0.83;0.50;;;24.20;99.90;;;;;;5109412;27;20176;-85
2021/06/17 05:15:45;;;;;;;1.00;0.90;;;24.40;99.90;;;;;;5092625;28;20245;-85
2021/06/17 05:18:11;;;;;;;0.80;0.80;;;24.60;99.90;;;;;;5099043;28;20370;-85
2021/06/17 05:20:37;;;;;;;1.27;1.20;;;24.60;99.90;;;;;;5104577;28;20268;-85
2021/06/17 05:23:03;;;;;;;0.90;0.90;;;24.70;99.90;;;;;;5099385;28;20191;-84
2021/06/17 05:25:29;;;;;;;1.17;0.90;;;24.60;99.90;;;;;;5094210;28;20298;-84
2021/06/17 05:27:54;;;;;;;0.63;0.63;;;24.70;99.90;;;;;;5095639;28;20259;-86
2021/06/17 05:30:20;;;;;;;0.73;0.50;;;24.90;99.90;;;;;;5095953;28;20184;-86
2021/06/17 05:32:46;;;;;;;1.00;1.00;;;24.60;99.90;;;;;;5099684;28;20180;-86
2021/06/17 05:35:12;;;;;;;0.60;0.60;;;24.80;99.90;;;;;;5099971;28;20184;-86
2021/06/17 05:37:37;;;;;;;1.23;0.90;;;24.90;99.90;;;;;;5102952;28;20202;-86
2021/06/17 05:40:04;;;;;;;1.80;0.90;;;25.20;99.90;;;;;;5106307;28;20679;-86
2021/06/17 05:42:30;;;;;;;1.03;0.83;;;25.00;99.90;;;;;;5103640;28;20176;-86
2021/06/17 05:44:56;;;;;;;1.53;1.10;;;24.60;99.90;;;;;;5093670;28;20176;-87
2021/06/17 05:47:22;;;;;;;2.13;1.37;;;24.80;99.90;;;;;;5093239;28;20650;-86
2021/06/17 05:49:48;;;;;;;0.57;0.57;;;25.00;99.90;;;;;;5096022;28;20238;-85
2021/06/17 05:52:15;;;;;;;0.70;0.60;;;24.90;99.90;;;;;;5092223;28;20180;-86
2021/06/17 05:54:40;;;;;;;0.77;0.77;;;24.90;99.90;;;;;;5096293;28;20717;-85
2021/06/17 05:57:06;;;;;;;0.90;0.90;;;25.10;99.90;;;;;;5109883;28;20179;-88
2021/06/17 05:59:32;;;;;;;0.50;0.50;;;25.30;99.90;;;;;;5106190;28;20208;-88
2021/06/17 06:01:59;;;;;;;0.43;0.43;;;25.50;99.90;;;;;;5110460;28;20184;-88
2021/06/17 06:04:24;;;;;;;0.80;0.80;;;25.50;99.90;;;;;;5107876;28;20183;-88
2021/06/17 06:06:50;;;;;;;0.77;0.63;;;25.70;99.90;;;;;;5100051;28;20220;-88
2021/06/17 06:09:15;;;;;;;0.70;0.63;;;25.90;99.90;;;;;;5102360;28;20287;-88
2021/06/17 06:11:41;;;;;;;0.83;0.57;;;25.70;99.90;;;;;;5109429;28;20184;-88
2021/06/17 06:14:06;;;;;;;1.30;0.83;;;25.50;99.90;;;;;;5097522;28;20192;-88
2021/06/17 06:16:36;;;;;;;0.60;0.60;;;25.30;99.90;;;;;;5105705;28;20195;-91
2021/06/17 06:19:05;;;;;;;1.10;1.00;;;25.50;99.90;;;;;;5105383;28;20207;-88
2021/06/17 06:21:32;;;;;;;0.77;0.77;;;25.60;99.90;;;;;;5105240;28;20191;-88
2021/06/17 06:23:57;;;;;;;0.73;0.67;;;25.80;99.90;;;;;;5096991;28;20195;-88
2021/06/17 06:26:23;;;;;;;1.03;1.03;;;26.10;99.90;;;;;;5096120;28;20668;-88
2021/06/17 06:28:48;;;;;;;0.80;0.80;;;25.90;99.90;;;;;;5104414;28;20710;-88
2021/06/17 06:31:18;;;;;;;2.10;1.00;;;25.80;99.90;;;;;;5105427;28;20624;-88
2021/06/17 06:33:44;;;;;;;0.97;0.97;;;25.70;99.90;;;;;;5102621;28;20179;-88
2021/06/17 06:36:09;;;;;;;0.80;0.67;;;25.70;99.90;;;;;;5101635;28;20183;-88
2021/06/17 06:38:35;;;;;;;1.33;1.13;;;26.00;99.90;;;;;;5103822;28;20256;-88
2021/06/17 06:41:01;;;;;;;0.93;0.93;;;26.40;99.90;;;;;;5107795;28;20180;-88
2021/06/17 06:43:26;;;;;;;0.73;0.70;;;26.30;99.90;;;;;;5108494;28;20222;-88
2021/06/17 06:45:52;;;;;;;1.50;1.33;;;26.10;99.90;;;;;;5110541;28;20234;-88
2021/06/17 06:48:18;;;;;;;0.63;0.63;;;26.10;99.90;;;;;;5113757;27;20214;-88
2021/06/17 06:50:45;;;;;;;2.00;1.47;;;26.40;99.90;;;;;;5098247;28;20175;-89
2021/06/17 06:53:10;;;;;;;0.80;0.80;;;26.30;99.90;;;;;;5104946;28;20196;-88
2021/06/17 06:55:36;;;;;;;0.53;0.53;;;26.60;99.90;;;;;;5113050;28;20555;-88
2021/06/17 06:58:03;;;;;;;0.80;0.80;;;27.00;99.90;;;;;;5112527;28;20620;-88
2021/06/17 07:00:28;;;;;;;0.93;0.83;;;27.10;99.90;;;;;;5100670;28;20200;-88
2021/06/17 07:02:54;;;;;;;1.27;1.17;;;27.30;99.90;;;;;;5103109;28;20188;-88
2021/06/17 07:05:19;;;;;;;2.47;1.00;;;26.90;99.90;;;;;;5101453;28;20188;-88
2021/06/17 07:07:45;;;;;;;0.93;0.63;;;26.90;99.90;;;;;;5101418;28;20187;-88
2021/06/17 07:10:11;;;;;;;0.80;0.80;;;27.00;99.90;;;;;;5099899;28;20200;-89
2021/06/17 07:12:37;;;;;;;1.23;1.13;;;27.20;99.90;;;;;;5103444;28;20188;-88
2021/06/17 07:15:04;;;;;;;1.87;0.90;;;27.20;99.90;;;;;;5104119;28;20658;-88
2021/06/17 07:17:29;;;;;;;1.17;1.07;;;27.60;99.90;;;;;;5094007;28;20195;-86
2021/06/17 07:19:56;;;;;;;1.95;1.00;;;27.70;99.90;;;;;;5098853;28;20207;-85
2021/06/17 07:22:25;;;;;;;3.13;0.80;;;27.50;99.90;;;;;;5114932;27;20183;-85
2021/06/17 07:24:53;;;;;;;1.20;1.03;;;27.50;99.90;;;;;;5093200;28;22168;-89
2021/06/17 07:27:19;;;;;;;0.80;0.80;;;27.60;99.90;;;;;;5101546;28;20232;-88
2021/06/17 07:29:45;;;;;;;0.80;0.80;;;27.50;99.90;;;;;;5081964;28;20291;-88
2021/06/17 07:32:10;;;;;;;1.02;1.00;;;27.90;99.90;;;;;;5105976;27;20209;-91
2021/06/17 07:34:36;;;;;;;0.77;0.75;;;28.10;99.90;;;;;;5108006;28;20176;-88
2021/06/17 07:37:02;;;;;;;1.10;1.02;;;28.50;99.90;;;;;;5104494;28;20179;-88
2021/06/17 07:39:27;;;;;;;0.57;0.57;;;28.80;99.90;;;;;;5106008;28;20693;-89
2021/06/17 07:42:11;;;;;;;0.82;0.80;;;29.10;99.90;;;;;;5105688;28;20211;-88
2021/06/17 07:44:38;;;;;;;1.55;0.88;;;28.90;99.90;;;;;;5091594;28;20187;-88
2021/06/17 07:47:04;;;;;;;1.02;1.02;;;28.60;99.90;;;;;;5093843;28;20269;-89
2021/06/17 07:49:43;;;;;;;1.35;1.15;;;28.50;99.90;;;;;;5099139;28;20195;-88
2021/06/17 07:52:09;;;;;;;0.68;0.68;;;29.00;99.90;;;;;;5107396;28;20605;-88
2021/06/17 07:54:35;;;;;;;0.80;0.80;;;29.20;99.90;;;;;;5105548;28;20172;-88
2021/06/17 07:57:06;;;;;;;1.77;1.13;;;29.40;99.90;;;;;;5108949;27;20611;-88
2021/06/17 07:59:31;;;;;;;0.60;0.60;;;29.60;99.90;;;;;;5096636;28;20721;-89
2021/06/17 08:01:58;;;;;;;0.93;0.93;;;29.30;99.90;;;;;;5097123;28;20180;-88
2021/06/17 08:04:26;;;;;;;0.70;0.70;;;28.80;99.90;;;;;;5091974;28;20191;-88
2021/06/17 08:06:53;;;;;;;1.02;0.85;;;29.20;99.90;;;;;;5104895;28;20199;-89
2021/06/17 08:09:19;;;;;;;0.73;0.73;;;29.50;99.90;;;;;;5100278;28;20211;-88
2021/06/17 08:11:48;;;;;;;1.50;1.40;;;29.80;99.90;;;;;;5116520;28;20311;-88
2021/06/17 08:14:30;;;;;;;1.20;0.80;;;29.80;99.90;;;;;;5101951;28;20191;-89
2021/06/17 08:16:57;;;;;;;0.98;0.93;;;29.70;99.90;;;;;;5107100;28;20545;-88
2021/06/17 08:19:30;;;;;;;1.40;1.30;;;30.00;99.90;;;;;;5096712;28;20200;-89
2021/06/17 08:21:57;;;;;;;0.68;0.68;;;29.30;99.90;;;;;;5109240;28;20188;-88
2021/06/17 08:24:23;;;;;;;1.50;1.20;;;29.60;99.90;;;;;;5106987;28;20575;-88
2021/06/17 08:26:49;;;;;;;1.00;0.90;;;29.90;99.90;;;;;;5107469;28;20206;-90
2021/06/17 08:29:15;;;;;;;0.95;0.95;;;30.30;99.90;;;;;;5106130;28;20212;-90
2021/06/17 08:31:43;;;;;;;2.08;1.13;;;30.40;99.90;;;;;;5106771;28;20187;-89
2021/06/17 08:34:10;;;;;;;1.55;1.08;;;30.70;99.90;;;;;;5096810;28;20184;-90
2021/06/17 08:36:35;;;;;;;0.93;0.88;;;30.60;99.90;;;;;;5120273;27;20322;-91
2021/06/17 08:39:01;;;;;;;1.65;1.40;;;30.10;99.90;;;;;;5105672;28;20241;-90
2021/06/17 08:41:27;;;;;;;1.85;1.30;;;30.30;99.90;;;;;;5095435;28;20261;-90
2021/06/17 08:43:53;;;;;;;1.17;0.80;;;29.90;99.90;;;;;;5104284;28;20692;-88
2021/06/17 08:46:19;;;;;;;0.95;0.95;;;29.30;99.90;;;;;;5103410;28;20239;-88
2021/06/17 08:48:45;;;;;;;0.80;0.80;;;29.30;99.90;;;;;;5099390;28;20196;-88
2021/06/17 08:51:11;;;;;;;1.98;0.80;;;29.30;99.90;;;;;;5114775;28;20187;-88
2021/06/17 08:53:39;;;;;;;0.80;0.80;;;29.70;99.90;;;;;;5107915;28;20241;-88
2021/06/17 08:56:05;;;;;;;0.98;0.98;;;30.10;99.90;;;;;;5110276;27;20188;-88
2021/06/17 08:58:31;;;;;;;0.68;0.68;;;30.40;99.90;;;;;;5104327;27;20204;-88
2021/06/17 09:00:57;;;;;;;1.10;0.95;;;30.60;99.90;;;;;;5106066;28;20532;-88
2021/06/17 09:03:23;;;;;;;2.58;1.20;;;30.10;99.90;;;;;;5108673;28;20183;-88
2021/06/17 09:05:50;;;;;;;1.35;1.15;;;30.30;99.90;;;;;;5101804;28;20272;-88
2021/06/17 09:08:30;;;;;;;0.95;0.95;;;30.80;99.90;;;;;;5099427;28;20283;-88
2021/06/17 09:10:56;;;;;;;1.25;1.15;;;30.90;99.90;;;;;;5096566;28;20237;-89
2021/06/17 09:13:28;;;;;;;0.95;0.88;;;30.60;99.90;;;;;;5117157;27;20197;-88
2021/06/17 09:15:55;;;;;;;0.75;0.73;;;30.60;99.90;;;;;;5107436;27;20188;-88
2021/06/17 09:18:25;;;;;;;0.65;0.65;;;30.90;99.90;;;;;;5117482;27;20208;-88
2021/06/17 09:21:04;;;;;;;0.77;0.77;;;31.10;99.90;;;;;;5111889;28;20184;-88
2021/06/17 09:23:38;;;;;;;0.80;0.63;;;31.30;99.90;;;;;;5101051;28;20215;-88
2021/06/17 09:26:19;;;;;;;0.73;0.73;;;30.60;99.90;;;;;;5106819;28;20649;-89
2021/06/17 09:29:07;;;;;;;0.80;0.73;;;30.60;99.90;;;;;;5102857;28;20670;-88
2021/06/17 09:31:40;;;;;;;1.40;0.98;;;31.10;99.90;;;;;;5126265;27;20263;-88
2021/06/17 09:34:07;;;;;;;1.08;0.73;;;31.50;99.90;;;;;;5119074;27;20180;-89
2021/06/17 09:36:35;;;;;;;1.20;1.10;;;31.90;99.90;;;;;;5100843;28;20244;-89
2021/06/17 09:39:15;;;;;;;1.17;1.08;;;32.00;99.90;;;;;;5111921;28;20206;-88
2021/06/17 09:41:46;;;;;;;1.75;1.13;;;32.20;99.90;;;;;;5122126;27;20195;-89
2021/06/17 09:44:39;;;;;;;2.30;1.75;;;32.40;99.90;;;;;;5096629;28;20213;-88
2021/06/17 09:47:09;;;;;;;1.55;1.40;;;31.40;99.90;;;;;;5103489;28;20214;-88
2021/06/17 09:49:36;;;;;;;1.20;1.10;;;31.50;99.90;;;;;;5095654;28;20222;-88
2021/06/17 09:52:01;;;;;;;0.90;0.90;;;31.90;99.90;;;;;;5106675;27;20180;-89
2021/06/17 09:54:28;;;;;;;1.52;1.25;;;31.80;99.90;;;;;;5112082;28;20182;-88
2021/06/17 09:56:58;;;;;;;1.75;1.00;;;32.00;99.90;;;;;;5099427;28;20188;-88
2021/06/17 09:59:47;;;;;;;1.58;1.30;;;31.80;99.90;;;;;;5102013;28;20246;-89
2021/06/17 10:02:17;;;;;;;1.40;1.30;;;31.80;99.90;;;;;;5123873;27;20208;-88
2021/06/17 10:04:46;;;;;;;1.67;1.58;;;31.50;99.90;;;;;;5109877;28;20781;-89
2021/06/17 10:07:12;;;;;;;1.08;0.98;;;31.80;99.90;;;;;;5099605;28;20231;-88
2021/06/17 10:09:38;;;;;;;2.35;1.88;;;31.90;99.90;;;;;;5105234;28;20207;-88
2021/06/17 10:12:05;;;;;;;3.33;1.58;;;31.80;99.90;;;;;;5095832;28;20187;-87
2021/06/17 10:14:31;;;;;;;1.67;1.23;;;31.30;99.90;;;;;;5095143;28;20187;-88
2021/06/17 10:16:58;;;;;;;0.93;0.93;;;31.40;99.90;;;;;;5095364;28;20188;-87
2021/06/17 10:19:24;;;;;;;0.88;0.88;;;31.90;99.90;;;;;;5097854;28;20213;-88
2021/06/17 10:21:55;;;;;;;0.73;0.73;;;32.50;99.90;;;;;;5097099;28;20664;-89
2021/06/17 10:24:23;;;;;;;1.63;1.35;;;32.80;99.90;;;;;;5106639;28;20738;-88
2021/06/17 10:26:55;;;;;;;1.77;1.55;;;32.70;99.90;;;;;;5097538;28;20218;-88
2021/06/17 10:29:26;;;;;;;1.20;1.10;;;32.60;99.90;;;;;;5108930;28;20341;-89
2021/06/17 10:31:59;;;;;;;1.38;1.27;;;32.70;99.90;;;;;;5100319;28;20183;-88
2021/06/17 10:34:24;;;;;;;2.17;1.50;;;31.90;99.90;;;;;;5109425;28;20324;-88
2021/06/17 10:37:13;;;;;;;1.17;1.13;;;31.80;99.90;;;;;;5107524;28;20263;-88
2021/06/17 10:39:47;;;;;;;1.65;1.55;;;32.00;99.90;;;;;;5098788;28;20204;-88
2021/06/17 10:42:14;;;;;;;1.35;1.25;;;32.30;99.90;;;;;;5106522;28;20179;-88
2021/06/17 10:45:32;;;;;;;1.48;1.38;;;32.50;99.90;;;;;;5106818;28;20205;-88
2021/06/17 10:47:59;;;;;;;3.28;1.60;;;32.00;99.90;;;;;;5072922;28;20700;-88
2021/06/17 10:50:42;;;;;;;1.00;1.00;;;31.40;99.90;;;;;;5106349;28;20255;-88
2021/06/17 10:53:34;;;;;;;2.47;1.75;;;31.80;99.90;;;;;;5111694;27;20181;-87
2021/06/17 10:56:07;;;;;;;3.17;1.65;;;31.80;99.90;;;;;;5109308;28;20171;-88
2021/06/17 10:58:42;;;;;;;1.77;1.67;;;31.60;99.90;;;;;;5093072;28;20192;-88
2021/06/17 11:01:29;;;;;;;1.80;1.52;;;31.50;99.90;;;;;;5113658;28;20186;-88
2021/06/17 11:04:18;;;;;;;3.45;1.95;;;31.70;99.90;;;;;;5127818;27;20928;-88
2021/06/17 11:06:53;;;;;;;1.20;1.13;;;31.80;99.90;;;;;;5116046;28;20218;-88
2021/06/17 11:09:45;;;;;;;1.25;1.17;;;32.60;99.90;;;;;;5117845;28;20183;-88
2021/06/17 11:12:16;;;;;;;1.85;1.75;;;33.10;99.90;;;;;;5100576;28;20207;-88
2021/06/17 11:14:54;;;;;;;1.27;1.25;;;33.10;99.90;;;;;;5101516;28;20229;-88
2021/06/17 11:17:29;;;;;;;1.95;1.85;;;33.50;99.90;;;;;;5099875;28;20211;-88
2021/06/17 11:20:13;;;;;;;1.00;1.00;;;33.80;99.90;;;;;;5103225;28;20207;-89
2021/06/17 11:22:59;;;;;;;1.67;1.55;;;33.30;99.90;;;;;;5107071;28;20717;-89
2021/06/17 11:25:27;;;;;;;1.75;1.65;;;32.90;99.90;;;;;;5098866;28;20203;-88
2021/06/17 11:27:56;;;;;;;1.52;1.30;;;32.90;99.90;;;;;;5112151;27;20213;-88
2021/06/17 11:30:37;;;;;;;1.20;1.15;;;33.30;99.90;;;;;;5102976;28;20187;-88
2021/06/17 11:33:16;;;;;;;1.80;1.48;;;33.60;99.90;;;;;;5104299;28;20179;-88
2021/06/17 11:35:55;;;;;;;1.75;1.33;;;33.90;99.90;;;;;;5094289;28;20184;-88
2021/06/17 11:38:32;;;;;;;2.10;1.90;;;33.60;99.90;;;;;;5099320;28;20248;-88
2021/06/17 11:41:10;;;;;;;1.60;1.50;;;33.00;99.90;;;;;;5093537;28;20549;-88
2021/06/17 11:43:36;;;;;;;1.13;1.02;;;32.80;99.90;;;;;;5110359;28;20184;-87
2021/06/17 11:46:01;;;;;;;0.95;0.95;;;33.20;99.90;;;;;;5095294;28;20290;-87
2021/06/17 11:48:27;;;;;;;3.95;1.90;;;33.40;99.90;;;;;;5093655;28;20188;-88
2021/06/17 11:50:55;;;;;;;2.00;1.80;;;32.60;99.90;;;;;;5092304;28;20898;-88
2021/06/17 11:53:23;;;;;;;2.25;2.05;;;33.20;99.90;;;;;;5101956;28;20172;-88
2021/06/17 11:55:54;;;;;;;1.60;1.50;;;33.60;99.90;;;;;;5095124;28;20237;-88
2021/06/17 11:58:25;;;;;;;1.90;1.80;;;34.00;99.90;;;;;;5090892;28;20232;-87
2021/06/17 12:00:51;;;;;;;1.10;1.08;;;34.20;99.90;;;;;;5091644;28;20264;-88
2021/06/17 12:03:23;;;;;;;2.45;1.30;;;34.40;99.90;;;;;;5092593;28;20173;-88
2021/06/17 12:05:49;;;;;;;1.35;1.27;;;34.50;99.90;;;;;;5099367;28;20260;-87
2021/06/17 12:08:15;;;;;;;1.58;1.40;;;34.80;99.90;;;;;;5097764;28;20651;-87
2021/06/17 12:10:42;;;;;;;1.08;1.08;;;34.80;99.90;;;;;;5104363;28;20267;-88
2021/06/17 12:13:10;;;;;;;2.22;2.00;;;34.90;99.90;;;;;;5106352;28;20187;-87
2021/06/17 12:15:39;;;;;;;1.65;1.42;;;35.00;99.90;;;;;;5111438;28;20180;-88
2021/06/17 12:18:14;;;;;;;3.47;2.03;;;35.00;99.90;;;;;;5100974;28;20658;-87
2021/06/17 12:20:42;;;;;;;2.85;1.70;;;34.80;99.90;;;;;;5097171;28;20183;-87
2021/06/17 12:23:11;;;;;;;1.45;1.35;;;34.90;99.90;;;;;;5097540;28;20195;-87
2021/06/17 12:25:56;;;;;;;1.45;1.35;;;34.80;99.90;;;;;;5114465;28;20609;-88
2021/06/17 12:28:21;;;;;;;1.75;1.65;;;34.50;99.90;;;;;;5112351;28;20635;-87
2021/06/17 12:30:49;;;;;;;1.40;1.30;;;34.50;99.90;;;;;;5103509;28;20203;-88
2021/06/17 12:33:31;;;;;;;1.33;1.02;;;34.80;99.90;;;;;;5107350;28;20282;-88
2021/06/17 12:36:01;;;;;;;1.23;1.13;;;35.20;99.90;;;;;;5098930;28;20272;-87
2021/06/17 12:38:45;;;;;;;1.25;1.15;;;35.50;99.90;;;;;;5097338;28;20269;-88
2021/06/17 12:41:15;;;;;;;1.85;1.40;;;35.50;99.90;;;;;;5111898;28;20184;-88
2021/06/17 12:43:52;;;;;;;1.52;1.20;;;35.30;99.90;;;;;;5110190;28;20241;-88
2021/06/17 12:46:27;;;;;;;2.47;1.30;;;35.30;99.90;;;;;;5100759;28;20260;-88
2021/06/17 12:52:02;;;;;;;1.30;1.20;;;35.20;99.90;;;;;;5085253;28;20188;-87
2021/06/17 12:54:36;;;;;;;2.20;2.00;;;35.20;99.90;;;;;;5097705;28;20513;-87
2021/06/17 12:57:06;;;;;;;8.13;2.15;;;35.30;99.90;;;;;;5110196;28;20183;-88
2021/06/17 12:59:37;;;;;;;1.88;1.65;;;35.40;99.90;;;;;;5109877;28;20227;-88
2021/06/17 13:02:03;;;;;;;1.50;1.40;;;35.50;99.90;;;;;;5112147;28;20621;-87
2021/06/17 13:04:29;;;;;;;0.82;0.82;;;35.60;99.90;;;;;;5100847;28;20194;-88